sensor_id;sensor_type;location;lat;lon;timestamp;P1;durP1;ratioP1;P2;durP2;ratioP2
16472;SDS011;8347;52.486;13.432;2022-11-12T00:00:19;16.17;;;8.57;;
16472;SDS011;8347;52.486;13.432;2022-11-12T00:03:24;13.23;;;8.25;;
16472;SDS011;8347;52.486;13.432;2022-11-12T00:06:29;14.07;;;8.77;;
16472;SDS011;8347;52.486;13.432;2022-11-12T00:09:34;17.10;;;8.73;;
16472;SDS011;8347;52.486;13.432;2022-11-12T00:12:39;11.82;;;7.10;;
16472;SDS011;8347;52.486;13.432;2022-11-12T00:15:45;15.73;;;8.02;;
16472;SDS011;8347;52.486;13.432;2022-11-12T00:18:50;11.38;;;7.40;;
16472;SDS011;8347;52.486;13.432;2022-11-12T00:21:55;11.40;;;7.57;;
16472;SDS011;8347;52.486;13.432;2022-11-12T00:25:01;12.25;;;7.07;;
16472;SDS011;8347;52.486;13.432;2022-11-12T00:28:08;10.20;;;5.93;;
16472;SDS011;8347;52.486;13.432;2022-11-12T00:31:13;9.85;;;6.53;;
16472;SDS011;8347;52.486;13.432;2022-11-12T00:34:18;13.10;;;6.82;;
16472;SDS011;8347;52.486;13.432;2022-11-12T00:37:24;9.20;;;5.85;;
16472;SDS011;8347;52.486;13.432;2022-11-12T00:40:28;14.48;;;6.57;;
16472;SDS011;8347;52.486;13.432;2022-11-12T00:43:34;9.55;;;6.40;;
16472;SDS011;8347;52.486;13.432;2022-11-12T00:46:39;9.20;;;6.07;;
16472;SDS011;8347;52.486;13.432;2022-11-12T00:49:44;12.98;;;7.03;;
16472;SDS011;8347;52.486;13.432;2022-11-12T00:52:53;11.60;;;7.72;;
16472;SDS011;8347;52.486;13.432;2022-11-12T00:55:59;10.18;;;6.82;;
16472;SDS011;8347;52.486;13.432;2022-11-12T00:59:04;12.30;;;7.03;;
16472;SDS011;8347;52.486;13.432;2022-11-12T01:02:09;16.02;;;7.70;;
16472;SDS011;8347;52.486;13.432;2022-11-12T01:05:15;10.65;;;7.03;;
16472;SDS011;8347;52.486;13.432;2022-11-12T01:08:20;8.98;;;5.88;;
16472;SDS011;8347;52.486;13.432;2022-11-12T01:11:26;11.77;;;7.13;;
16472;SDS011;8347;52.486;13.432;2022-11-12T01:14:32;12.98;;;6.80;;
16472;SDS011;8347;52.486;13.432;2022-11-12T01:17:38;13.52;;;6.85;;
16472;SDS011;8347;52.486;13.432;2022-11-12T01:20:43;14.02;;;6.65;;
16472;SDS011;8347;52.486;13.432;2022-11-12T01:23:48;9.23;;;5.75;;
16472;SDS011;8347;52.486;13.432;2022-11-12T01:26:53;10.55;;;5.47;;
16472;SDS011;8347;52.486;13.432;2022-11-12T01:29:58;12.27;;;6.60;;
16472;SDS011;8347;52.486;13.432;2022-11-12T01:33:03;8.00;;;6.28;;
16472;SDS011;8347;52.486;13.432;2022-11-12T01:36:08;10.90;;;6.40;;
16472;SDS011;8347;52.486;13.432;2022-11-12T01:39:14;9.95;;;5.88;;
16472;SDS011;8347;52.486;13.432;2022-11-12T01:42:19;8.70;;;5.82;;
16472;SDS011;8347;52.486;13.432;2022-11-12T01:45:24;9.60;;;5.55;;
16472;SDS011;8347;52.486;13.432;2022-11-12T01:48:37;11.82;;;5.75;;
16472;SDS011;8347;52.486;13.432;2022-11-12T01:51:45;9.07;;;6.18;;
16472;SDS011;8347;52.486;13.432;2022-11-12T01:54:55;9.02;;;5.30;;
16472;SDS011;8347;52.486;13.432;2022-11-12T01:58:12;10.98;;;6.03;;
16472;SDS011;8347;52.486;13.432;2022-11-12T02:01:18;13.07;;;6.30;;
16472;SDS011;8347;52.486;13.432;2022-11-12T02:04:24;9.23;;;5.80;;
16472;SDS011;8347;52.486;13.432;2022-11-12T02:07:30;11.48;;;6.30;;
16472;SDS011;8347;52.486;13.432;2022-11-12T02:10:37;10.77;;;5.50;;
16472;SDS011;8347;52.486;13.432;2022-11-12T02:13:43;7.88;;;5.20;;
16472;SDS011;8347;52.486;13.432;2022-11-12T02:17:02;9.27;;;5.55;;
16472;SDS011;8347;52.486;13.432;2022-11-12T02:20:08;9.63;;;5.60;;
16472;SDS011;8347;52.486;13.432;2022-11-12T02:23:13;10.63;;;5.70;;
16472;SDS011;8347;52.486;13.432;2022-11-12T02:26:18;11.32;;;5.28;;
16472;SDS011;8347;52.486;13.432;2022-11-12T02:29:23;10.80;;;5.03;;
16472;SDS011;8347;52.486;13.432;2022-11-12T02:32:30;7.95;;;4.65;;
16472;SDS011;8347;52.486;13.432;2022-11-12T02:35:35;6.35;;;4.47;;
16472;SDS011;8347;52.486;13.432;2022-11-12T02:38:39;10.60;;;5.03;;
16472;SDS011;8347;52.486;13.432;2022-11-12T02:41:45;8.23;;;4.50;;
16472;SDS011;8347;52.486;13.432;2022-11-12T02:44:50;7.03;;;4.63;;
16472;SDS011;8347;52.486;13.432;2022-11-12T02:47:56;8.10;;;4.47;;
16472;SDS011;8347;52.486;13.432;2022-11-12T02:51:01;5.57;;;3.78;;
16472;SDS011;8347;52.486;13.432;2022-11-12T02:54:06;8.07;;;4.53;;
16472;SDS011;8347;52.486;13.432;2022-11-12T02:57:12;8.95;;;4.95;;
16472;SDS011;8347;52.486;13.432;2022-11-12T03:00:17;10.60;;;5.50;;
16472;SDS011;8347;52.486;13.432;2022-11-12T03:03:22;8.15;;;4.90;;
16472;SDS011;8347;52.486;13.432;2022-11-12T03:06:27;9.73;;;3.85;;
16472;SDS011;8347;52.486;13.432;2022-11-12T03:09:32;5.97;;;4.15;;
16472;SDS011;8347;52.486;13.432;2022-11-12T03:12:38;9.50;;;4.05;;
16472;SDS011;8347;52.486;13.432;2022-11-12T03:15:42;6.85;;;3.90;;
16472;SDS011;8347;52.486;13.432;2022-11-12T03:18:48;7.40;;;4.22;;
16472;SDS011;8347;52.486;13.432;2022-11-12T03:21:53;8.10;;;4.15;;
16472;SDS011;8347;52.486;13.432;2022-11-12T03:24:58;10.70;;;4.05;;
16472;SDS011;8347;52.486;13.432;2022-11-12T03:28:07;6.47;;;3.67;;
16472;SDS011;8347;52.486;13.432;2022-11-12T03:31:13;4.60;;;3.50;;
16472;SDS011;8347;52.486;13.432;2022-11-12T03:34:18;6.60;;;3.55;;
16472;SDS011;8347;52.486;13.432;2022-11-12T03:37:23;6.05;;;3.33;;
16472;SDS011;8347;52.486;13.432;2022-11-12T03:40:29;7.35;;;4.47;;
16472;SDS011;8347;52.486;13.432;2022-11-12T03:43:34;8.18;;;4.32;;
16472;SDS011;8347;52.486;13.432;2022-11-12T03:46:39;6.38;;;4.20;;
16472;SDS011;8347;52.486;13.432;2022-11-12T03:49:44;7.88;;;3.58;;
16472;SDS011;8347;52.486;13.432;2022-11-12T03:52:50;6.68;;;3.90;;
16472;SDS011;8347;52.486;13.432;2022-11-12T03:55:56;6.07;;;3.92;;
16472;SDS011;8347;52.486;13.432;2022-11-12T03:59:02;7.55;;;3.67;;
16472;SDS011;8347;52.486;13.432;2022-11-12T04:02:07;8.65;;;3.90;;
16472;SDS011;8347;52.486;13.432;2022-11-12T04:05:17;6.75;;;3.47;;
16472;SDS011;8347;52.486;13.432;2022-11-12T04:08:42;7.47;;;3.55;;
16472;SDS011;8347;52.486;13.432;2022-11-12T04:11:47;5.80;;;3.33;;
16472;SDS011;8347;52.486;13.432;2022-11-12T04:14:52;7.45;;;3.45;;
16472;SDS011;8347;52.486;13.432;2022-11-12T04:17:58;8.98;;;4.80;;
16472;SDS011;8347;52.486;13.432;2022-11-12T04:21:23;7.53;;;3.88;;
16472;SDS011;8347;52.486;13.432;2022-11-12T04:24:54;7.00;;;3.88;;
16472;SDS011;8347;52.486;13.432;2022-11-12T04:28:18;6.40;;;4.20;;
16472;SDS011;8347;52.486;13.432;2022-11-12T04:31:23;6.20;;;3.55;;
16472;SDS011;8347;52.486;13.432;2022-11-12T04:34:28;7.28;;;4.10;;
16472;SDS011;8347;52.486;13.432;2022-11-12T04:37:34;4.85;;;3.20;;
16472;SDS011;8347;52.486;13.432;2022-11-12T04:40:49;6.57;;;3.00;;
16472;SDS011;8347;52.486;13.432;2022-11-12T04:44:13;7.07;;;3.63;;
16472;SDS011;8347;52.486;13.432;2022-11-12T04:47:39;6.45;;;4.25;;
16472;SDS011;8347;52.486;13.432;2022-11-12T04:50:45;7.28;;;4.35;;
16472;SDS011;8347;52.486;13.432;2022-11-12T04:53:51;7.63;;;5.00;;
16472;SDS011;8347;52.486;13.432;2022-11-12T04:56:56;7.60;;;4.18;;
16472;SDS011;8347;52.486;13.432;2022-11-12T05:00:01;7.55;;;4.32;;
16472;SDS011;8347;52.486;13.432;2022-11-12T05:03:07;6.47;;;4.60;;
16472;SDS011;8347;52.486;13.432;2022-11-12T05:06:12;8.35;;;4.90;;
16472;SDS011;8347;52.486;13.432;2022-11-12T05:09:36;8.93;;;5.28;;
16472;SDS011;8347;52.486;13.432;2022-11-12T05:12:42;10.38;;;4.57;;
16472;SDS011;8347;52.486;13.432;2022-11-12T05:15:47;5.82;;;3.40;;
16472;SDS011;8347;52.486;13.432;2022-11-12T05:18:52;5.72;;;3.85;;
16472;SDS011;8347;52.486;13.432;2022-11-12T05:21:57;6.68;;;3.70;;
16472;SDS011;8347;52.486;13.432;2022-11-12T05:25:08;9.63;;;4.60;;
16472;SDS011;8347;52.486;13.432;2022-11-12T05:28:13;7.70;;;4.60;;
16472;SDS011;8347;52.486;13.432;2022-11-12T05:31:18;10.13;;;4.35;;
16472;SDS011;8347;52.486;13.432;2022-11-12T05:34:23;7.32;;;4.95;;
16472;SDS011;8347;52.486;13.432;2022-11-12T05:37:29;9.63;;;4.65;;
16472;SDS011;8347;52.486;13.432;2022-11-12T05:40:34;8.65;;;4.30;;
16472;SDS011;8347;52.486;13.432;2022-11-12T05:43:39;9.15;;;4.25;;
16472;SDS011;8347;52.486;13.432;2022-11-12T05:46:44;7.82;;;4.43;;
16472;SDS011;8347;52.486;13.432;2022-11-12T05:49:49;9.13;;;4.53;;
16472;SDS011;8347;52.486;13.432;2022-11-12T05:52:54;7.50;;;3.70;;
16472;SDS011;8347;52.486;13.432;2022-11-12T05:56:03;6.40;;;4.50;;
16472;SDS011;8347;52.486;13.432;2022-11-12T05:59:10;7.28;;;4.10;;
16472;SDS011;8347;52.486;13.432;2022-11-12T06:02:16;8.98;;;4.45;;
16472;SDS011;8347;52.486;13.432;2022-11-12T06:05:21;5.22;;;3.88;;
16472;SDS011;8347;52.486;13.432;2022-11-12T06:08:27;7.95;;;4.43;;
16472;SDS011;8347;52.486;13.432;2022-11-12T06:11:32;6.97;;;4.05;;
16472;SDS011;8347;52.486;13.432;2022-11-12T06:14:37;6.97;;;4.32;;
16472;SDS011;8347;52.486;13.432;2022-11-12T06:17:42;6.90;;;4.15;;
16472;SDS011;8347;52.486;13.432;2022-11-12T06:20:47;6.15;;;3.80;;
16472;SDS011;8347;52.486;13.432;2022-11-12T06:24:12;7.40;;;4.43;;
16472;SDS011;8347;52.486;13.432;2022-11-12T06:27:17;7.50;;;4.85;;
16472;SDS011;8347;52.486;13.432;2022-11-12T06:30:22;7.43;;;4.43;;
16472;SDS011;8347;52.486;13.432;2022-11-12T06:33:27;6.70;;;3.97;;
16472;SDS011;8347;52.486;13.432;2022-11-12T06:36:32;8.93;;;4.32;;
16472;SDS011;8347;52.486;13.432;2022-11-12T06:39:38;6.57;;;4.15;;
16472;SDS011;8347;52.486;13.432;2022-11-12T06:42:43;7.10;;;4.03;;
16472;SDS011;8347;52.486;13.432;2022-11-12T06:45:48;5.75;;;3.88;;
16472;SDS011;8347;52.486;13.432;2022-11-12T06:48:53;6.93;;;4.10;;
16472;SDS011;8347;52.486;13.432;2022-11-12T06:51:58;7.72;;;4.63;;
16472;SDS011;8347;52.486;13.432;2022-11-12T06:55:03;9.63;;;4.60;;
16472;SDS011;8347;52.486;13.432;2022-11-12T06:58:09;7.68;;;4.35;;
16472;SDS011;8347;52.486;13.432;2022-11-12T07:01:15;7.93;;;4.88;;
16472;SDS011;8347;52.486;13.432;2022-11-12T07:04:20;6.90;;;4.45;;
16472;SDS011;8347;52.486;13.432;2022-11-12T07:07:27;11.02;;;5.20;;
16472;SDS011;8347;52.486;13.432;2022-11-12T07:10:32;6.80;;;4.28;;
16472;SDS011;8347;52.486;13.432;2022-11-12T07:13:37;12.00;;;5.10;;
16472;SDS011;8347;52.486;13.432;2022-11-12T07:16:43;10.57;;;4.57;;
16472;SDS011;8347;52.486;13.432;2022-11-12T07:19:48;7.25;;;4.05;;
16472;SDS011;8347;52.486;13.432;2022-11-12T07:22:53;9.52;;;4.75;;
16472;SDS011;8347;52.486;13.432;2022-11-12T07:25:58;6.65;;;3.95;;
16472;SDS011;8347;52.486;13.432;2022-11-12T07:29:05;12.55;;;5.45;;
16472;SDS011;8347;52.486;13.432;2022-11-12T07:32:10;10.77;;;4.40;;
16472;SDS011;8347;52.486;13.432;2022-11-12T07:35:15;5.45;;;4.22;;
16472;SDS011;8347;52.486;13.432;2022-11-12T07:38:20;8.15;;;3.70;;
16472;SDS011;8347;52.486;13.432;2022-11-12T07:41:25;10.73;;;4.13;;
16472;SDS011;8347;52.486;13.432;2022-11-12T07:44:30;6.75;;;3.97;;
16472;SDS011;8347;52.486;13.432;2022-11-12T07:47:35;4.55;;;3.78;;
16472;SDS011;8347;52.486;13.432;2022-11-12T07:50:40;6.38;;;4.15;;
16472;SDS011;8347;52.486;13.432;2022-11-12T07:53:46;6.13;;;4.18;;
16472;SDS011;8347;52.486;13.432;2022-11-12T07:56:52;13.20;;;4.80;;
16472;SDS011;8347;52.486;13.432;2022-11-12T07:59:57;6.22;;;4.05;;
16472;SDS011;8347;52.486;13.432;2022-11-12T08:03:02;7.40;;;4.22;;
16472;SDS011;8347;52.486;13.432;2022-11-12T08:06:07;6.13;;;4.45;;
16472;SDS011;8347;52.486;13.432;2022-11-12T08:09:12;6.78;;;4.18;;
16472;SDS011;8347;52.486;13.432;2022-11-12T08:12:17;11.85;;;3.80;;
16472;SDS011;8347;52.486;13.432;2022-11-12T08:15:22;6.43;;;4.15;;
16472;SDS011;8347;52.486;13.432;2022-11-12T08:18:27;8.00;;;4.25;;
16472;SDS011;8347;52.486;13.432;2022-11-12T08:21:32;5.35;;;4.60;;
16472;SDS011;8347;52.486;13.432;2022-11-12T08:24:38;5.22;;;4.07;;
16472;SDS011;8347;52.486;13.432;2022-11-12T08:27:43;10.73;;;5.82;;
16472;SDS011;8347;52.486;13.432;2022-11-12T08:30:48;6.25;;;3.78;;
16472;SDS011;8347;52.486;13.432;2022-11-12T08:33:54;7.97;;;5.00;;
16472;SDS011;8347;52.486;13.432;2022-11-12T08:36:59;7.10;;;4.55;;
16472;SDS011;8347;52.486;13.432;2022-11-12T08:40:04;5.45;;;4.15;;
16472;SDS011;8347;52.486;13.432;2022-11-12T08:43:10;9.05;;;5.35;;
16472;SDS011;8347;52.486;13.432;2022-11-12T08:46:15;8.13;;;5.00;;
16472;SDS011;8347;52.486;13.432;2022-11-12T08:49:20;7.00;;;4.57;;
16472;SDS011;8347;52.486;13.432;2022-11-12T08:52:25;9.50;;;5.00;;
16472;SDS011;8347;52.486;13.432;2022-11-12T08:55:31;9.30;;;4.30;;
16472;SDS011;8347;52.486;13.432;2022-11-12T08:58:36;7.60;;;4.38;;
16472;SDS011;8347;52.486;13.432;2022-11-12T09:01:42;11.60;;;4.55;;
16472;SDS011;8347;52.486;13.432;2022-11-12T09:04:47;9.10;;;6.22;;
16472;SDS011;8347;52.486;13.432;2022-11-12T09:07:59;13.82;;;6.15;;
16472;SDS011;8347;52.486;13.432;2022-11-12T09:11:04;11.55;;;5.47;;
16472;SDS011;8347;52.486;13.432;2022-11-12T09:14:10;9.10;;;5.05;;
16472;SDS011;8347;52.486;13.432;2022-11-12T09:17:15;10.20;;;6.35;;
16472;SDS011;8347;52.486;13.432;2022-11-12T09:20:20;11.80;;;7.00;;
16472;SDS011;8347;52.486;13.432;2022-11-12T09:23:25;10.55;;;6.80;;
16472;SDS011;8347;52.486;13.432;2022-11-12T09:26:31;16.83;;;10.23;;
16472;SDS011;8347;52.486;13.432;2022-11-12T09:29:37;12.65;;;8.40;;
16472;SDS011;8347;52.486;13.432;2022-11-12T09:32:44;13.60;;;8.82;;
16472;SDS011;8347;52.486;13.432;2022-11-12T09:35:49;16.65;;;10.05;;
16472;SDS011;8347;52.486;13.432;2022-11-12T09:38:54;17.25;;;11.23;;
16472;SDS011;8347;52.486;13.432;2022-11-12T09:41:59;18.85;;;11.38;;
16472;SDS011;8347;52.486;13.432;2022-11-12T09:45:43;23.10;;;12.35;;
16472;SDS011;8347;52.486;13.432;2022-11-12T09:48:43;16.83;;;9.75;;
16472;SDS011;8347;52.486;13.432;2022-11-12T09:51:50;21.98;;;11.35;;
16472;SDS011;8347;52.486;13.432;2022-11-12T09:55:07;20.25;;;10.65;;
16472;SDS011;8347;52.486;13.432;2022-11-12T09:58:17;20.45;;;11.20;;
16472;SDS011;8347;52.486;13.432;2022-11-12T10:01:23;19.25;;;10.70;;
16472;SDS011;8347;52.486;13.432;2022-11-12T10:04:39;15.20;;;10.63;;
16472;SDS011;8347;52.486;13.432;2022-11-12T10:08:10;16.02;;;9.82;;
16472;SDS011;8347;52.486;13.432;2022-11-12T10:11:23;16.60;;;10.02;;
16472;SDS011;8347;52.486;13.432;2022-11-12T10:14:43;27.35;;;11.02;;
16472;SDS011;8347;52.486;13.432;2022-11-12T10:17:55;14.43;;;8.27;;
16472;SDS011;8347;52.486;13.432;2022-11-12T10:21:29;14.52;;;8.25;;
16472;SDS011;8347;52.486;13.432;2022-11-12T10:24:38;13.82;;;8.88;;
16472;SDS011;8347;52.486;13.432;2022-11-12T10:27:44;17.70;;;8.68;;
16472;SDS011;8347;52.486;13.432;2022-11-12T10:30:50;23.73;;;8.75;;
16472;SDS011;8347;52.486;13.432;2022-11-12T10:34:04;16.30;;;9.52;;
16472;SDS011;8347;52.486;13.432;2022-11-12T10:37:16;15.38;;;8.73;;
16472;SDS011;8347;52.486;13.432;2022-11-12T10:43:34;13.82;;;9.30;;
16472;SDS011;8347;52.486;13.432;2022-11-12T10:46:40;16.25;;;9.05;;
16472;SDS011;8347;52.486;13.432;2022-11-12T10:53:12;13.82;;;8.07;;
16472;SDS011;8347;52.486;13.432;2022-11-12T10:59:29;15.88;;;9.48;;
16472;SDS011;8347;52.486;13.432;2022-11-12T11:02:34;15.02;;;9.27;;
16472;SDS011;8347;52.486;13.432;2022-11-12T11:05:59;17.50;;;9.70;;
16472;SDS011;8347;52.486;13.432;2022-11-12T11:12:30;16.88;;;9.85;;
16472;SDS011;8347;52.486;13.432;2022-11-12T11:15:36;15.73;;;8.93;;
16472;SDS011;8347;52.486;13.432;2022-11-12T11:18:44;15.10;;;8.75;;
16472;SDS011;8347;52.486;13.432;2022-11-12T11:21:55;13.68;;;8.90;;
16472;SDS011;8347;52.486;13.432;2022-11-12T11:25:07;13.02;;;8.85;;
16472;SDS011;8347;52.486;13.432;2022-11-12T11:28:19;14.00;;;7.90;;
16472;SDS011;8347;52.486;13.432;2022-11-12T11:31:39;15.90;;;8.68;;
16472;SDS011;8347;52.486;13.432;2022-11-12T12:00:49;13.73;;;8.35;;
16472;SDS011;8347;52.486;13.432;2022-11-12T12:07:40;13.77;;;7.60;;
16472;SDS011;8347;52.486;13.432;2022-11-12T12:10:56;15.65;;;8.30;;
16472;SDS011;8347;52.486;13.432;2022-11-12T12:14:11;12.20;;;8.00;;
16472;SDS011;8347;52.486;13.432;2022-11-12T12:20:27;15.95;;;9.00;;
16472;SDS011;8347;52.486;13.432;2022-11-12T12:26:56;13.98;;;7.68;;
16472;SDS011;8347;52.486;13.432;2022-11-12T12:30:16;19.63;;;8.45;;
16472;SDS011;8347;52.486;13.432;2022-11-12T12:36:41;13.98;;;7.72;;
16472;SDS011;8347;52.486;13.432;2022-11-12T12:43:06;14.70;;;7.15;;
16472;SDS011;8347;52.486;13.432;2022-11-12T12:46:16;14.70;;;7.25;;
16472;SDS011;8347;52.486;13.432;2022-11-12T12:49:27;14.23;;;6.97;;
16472;SDS011;8347;52.486;13.432;2022-11-12T12:56:00;11.82;;;7.00;;
16472;SDS011;8347;52.486;13.432;2022-11-12T12:59:25;8.75;;;5.72;;
16472;SDS011;8347;52.486;13.432;2022-11-12T13:02:31;12.90;;;6.45;;
16472;SDS011;8347;52.486;13.432;2022-11-12T13:05:41;15.65;;;7.13;;
16472;SDS011;8347;52.486;13.432;2022-11-12T13:08:51;9.60;;;6.03;;
16472;SDS011;8347;52.486;13.432;2022-11-12T13:11:57;15.75;;;8.77;;
16472;SDS011;8347;52.486;13.432;2022-11-12T13:15:13;11.88;;;7.35;;
16472;SDS011;8347;52.486;13.432;2022-11-12T13:21:45;14.23;;;8.05;;
16472;SDS011;8347;52.486;13.432;2022-11-12T13:25:04;14.65;;;8.80;;
16472;SDS011;8347;52.486;13.432;2022-11-12T13:28:10;15.07;;;7.80;;
16472;SDS011;8347;52.486;13.432;2022-11-12T13:31:26;11.90;;;7.07;;
16472;SDS011;8347;52.486;13.432;2022-11-12T13:34:32;12.73;;;7.43;;
16472;SDS011;8347;52.486;13.432;2022-11-12T13:41:18;10.93;;;6.90;;
16472;SDS011;8347;52.486;13.432;2022-11-12T13:44:44;12.90;;;7.18;;
16472;SDS011;8347;52.486;13.432;2022-11-12T13:47:50;10.77;;;6.28;;
16472;SDS011;8347;52.486;13.432;2022-11-12T13:50:57;10.10;;;6.55;;
16472;SDS011;8347;52.486;13.432;2022-11-12T13:57:47;8.65;;;5.68;;
16472;SDS011;8347;52.486;13.432;2022-11-12T14:00:56;10.18;;;5.32;;
16472;SDS011;8347;52.486;13.432;2022-11-12T14:04:03;9.88;;;5.82;;
16472;SDS011;8347;52.486;13.432;2022-11-12T14:10:32;10.25;;;5.35;;
16472;SDS011;8347;52.486;13.432;2022-11-12T14:20:44;9.32;;;4.40;;
16472;SDS011;8347;52.486;13.432;2022-11-12T14:23:49;7.85;;;4.07;;
16472;SDS011;8347;52.486;13.432;2022-11-12T14:26:54;8.48;;;4.15;;
16472;SDS011;8347;52.486;13.432;2022-11-12T14:33:17;8.75;;;4.45;;
16472;SDS011;8347;52.486;13.432;2022-11-12T14:36:24;7.13;;;3.80;;
16472;SDS011;8347;52.486;13.432;2022-11-12T14:39:31;9.18;;;3.67;;
16472;SDS011;8347;52.486;13.432;2022-11-12T14:42:36;6.93;;;3.90;;
16472;SDS011;8347;52.486;13.432;2022-11-12T14:45:45;6.40;;;4.35;;
16472;SDS011;8347;52.486;13.432;2022-11-12T14:48:56;11.10;;;4.88;;
16472;SDS011;8347;52.486;13.432;2022-11-12T14:52:07;9.73;;;5.60;;
16472;SDS011;8347;52.486;13.432;2022-11-12T14:55:23;11.43;;;5.07;;
16472;SDS011;8347;52.486;13.432;2022-11-12T14:58:29;10.98;;;5.50;;
16472;SDS011;8347;52.486;13.432;2022-11-12T15:01:37;8.65;;;5.25;;
16472;SDS011;8347;52.486;13.432;2022-11-12T15:04:43;11.38;;;6.85;;
16472;SDS011;8347;52.486;13.432;2022-11-12T15:07:56;11.68;;;6.55;;
16472;SDS011;8347;52.486;13.432;2022-11-12T15:14:31;14.30;;;7.38;;
16472;SDS011;8347;52.486;13.432;2022-11-12T15:17:37;13.80;;;7.80;;
16472;SDS011;8347;52.486;13.432;2022-11-12T15:20:42;14.63;;;8.88;;
16472;SDS011;8347;52.486;13.432;2022-11-12T15:23:48;16.88;;;9.73;;
16472;SDS011;8347;52.486;13.432;2022-11-12T15:26:55;19.52;;;9.38;;
16472;SDS011;8347;52.486;13.432;2022-11-12T15:30:19;17.30;;;9.82;;
16472;SDS011;8347;52.486;13.432;2022-11-12T15:33:28;19.92;;;9.18;;
16472;SDS011;8347;52.486;13.432;2022-11-12T15:36:34;20.42;;;9.85;;
16472;SDS011;8347;52.486;13.432;2022-11-12T15:39:40;17.08;;;8.93;;
16472;SDS011;8347;52.486;13.432;2022-11-12T15:42:46;17.40;;;8.95;;
16472;SDS011;8347;52.486;13.432;2022-11-12T15:45:52;17.33;;;9.88;;
16472;SDS011;8347;52.486;13.432;2022-11-12T15:48:58;21.20;;;11.10;;
16472;SDS011;8347;52.486;13.432;2022-11-12T15:52:03;19.48;;;12.10;;
16472;SDS011;8347;52.486;13.432;2022-11-12T15:55:09;23.23;;;12.15;;
16472;SDS011;8347;52.486;13.432;2022-11-12T16:01:52;20.20;;;10.95;;
16472;SDS011;8347;52.486;13.432;2022-11-12T16:04:57;20.08;;;11.38;;
16472;SDS011;8347;52.486;13.432;2022-11-12T16:08:02;24.38;;;12.75;;
16472;SDS011;8347;52.486;13.432;2022-11-12T16:11:08;25.33;;;13.02;;
16472;SDS011;8347;52.486;13.432;2022-11-12T16:14:34;24.15;;;12.73;;
16472;SDS011;8347;52.486;13.432;2022-11-12T16:17:39;26.80;;;13.13;;
16472;SDS011;8347;52.486;13.432;2022-11-12T16:20:45;21.65;;;12.27;;
16472;SDS011;8347;52.486;13.432;2022-11-12T16:23:51;20.05;;;12.82;;
16472;SDS011;8347;52.486;13.432;2022-11-12T16:26:56;24.33;;;13.48;;
16472;SDS011;8347;52.486;13.432;2022-11-12T16:33:18;24.90;;;13.93;;
16472;SDS011;8347;52.486;13.432;2022-11-12T16:36:24;22.55;;;13.15;;
16472;SDS011;8347;52.486;13.432;2022-11-12T16:39:29;24.80;;;14.68;;
16472;SDS011;8347;52.486;13.432;2022-11-12T16:42:35;23.73;;;14.07;;
16472;SDS011;8347;52.486;13.432;2022-11-12T16:45:41;23.65;;;13.48;;
16472;SDS011;8347;52.486;13.432;2022-11-12T16:48:46;24.77;;;14.15;;
16472;SDS011;8347;52.486;13.432;2022-11-12T16:51:51;31.02;;;18.40;;
16472;SDS011;8347;52.486;13.432;2022-11-12T16:54:56;22.88;;;15.75;;
16472;SDS011;8347;52.486;13.432;2022-11-12T16:58:01;33.92;;;18.30;;
16472;SDS011;8347;52.486;13.432;2022-11-12T17:01:09;29.63;;;17.40;;
16472;SDS011;8347;52.486;13.432;2022-11-12T17:04:16;22.17;;;14.60;;
16472;SDS011;8347;52.486;13.432;2022-11-12T17:07:21;23.95;;;14.52;;
16472;SDS011;8347;52.486;13.432;2022-11-12T17:10:26;29.42;;;17.20;;
16472;SDS011;8347;52.486;13.432;2022-11-12T17:13:31;29.70;;;15.23;;
16472;SDS011;8347;52.486;13.432;2022-11-12T17:16:36;29.17;;;16.70;;
16472;SDS011;8347;52.486;13.432;2022-11-12T17:19:41;30.52;;;17.55;;
16472;SDS011;8347;52.486;13.432;2022-11-12T17:22:46;27.05;;;18.73;;
16472;SDS011;8347;52.486;13.432;2022-11-12T17:26:01;34.72;;;19.73;;
16472;SDS011;8347;52.486;13.432;2022-11-12T17:29:06;25.05;;;17.88;;
16472;SDS011;8347;52.486;13.432;2022-11-12T17:32:12;34.22;;;20.15;;
16472;SDS011;8347;52.486;13.432;2022-11-12T17:35:17;31.60;;;19.48;;
16472;SDS011;8347;52.486;13.432;2022-11-12T17:38:22;34.63;;;20.45;;
16472;SDS011;8347;52.486;13.432;2022-11-12T17:41:28;29.17;;;17.58;;
16472;SDS011;8347;52.486;13.432;2022-11-12T17:44:33;28.65;;;16.92;;
16472;SDS011;8347;52.486;13.432;2022-11-12T17:47:38;29.95;;;17.05;;
16472;SDS011;8347;52.486;13.432;2022-11-12T17:50:44;39.92;;;22.00;;
16472;SDS011;8347;52.486;13.432;2022-11-12T17:53:49;29.75;;;18.13;;
16472;SDS011;8347;52.486;13.432;2022-11-12T17:56:54;32.35;;;19.77;;
16472;SDS011;8347;52.486;13.432;2022-11-12T17:59:59;32.60;;;17.75;;
16472;SDS011;8347;52.486;13.432;2022-11-12T18:03:05;28.52;;;18.25;;
16472;SDS011;8347;52.486;13.432;2022-11-12T18:06:10;33.03;;;20.55;;
16472;SDS011;8347;52.486;13.432;2022-11-12T18:09:17;33.22;;;19.23;;
16472;SDS011;8347;52.486;13.432;2022-11-12T18:12:22;34.45;;;18.40;;
16472;SDS011;8347;52.486;13.432;2022-11-12T18:15:26;31.88;;;18.30;;
16472;SDS011;8347;52.486;13.432;2022-11-12T18:18:34;37.65;;;20.23;;
16472;SDS011;8347;52.486;13.432;2022-11-12T18:21:39;39.58;;;22.30;;
16472;SDS011;8347;52.486;13.432;2022-11-12T18:24:48;35.08;;;20.13;;
16472;SDS011;8347;52.486;13.432;2022-11-12T18:27:53;34.20;;;20.25;;
16472;SDS011;8347;52.486;13.432;2022-11-12T18:30:59;35.50;;;21.90;;
16472;SDS011;8347;52.486;13.432;2022-11-12T18:34:04;39.67;;;24.05;;
16472;SDS011;8347;52.486;13.432;2022-11-12T18:37:10;42.78;;;26.13;;
16472;SDS011;8347;52.486;13.432;2022-11-12T18:40:15;40.28;;;23.83;;
16472;SDS011;8347;52.486;13.432;2022-11-12T18:43:21;30.10;;;22.42;;
16472;SDS011;8347;52.486;13.432;2022-11-12T18:46:26;31.77;;;21.70;;
16472;SDS011;8347;52.486;13.432;2022-11-12T18:49:31;32.17;;;21.13;;
16472;SDS011;8347;52.486;13.432;2022-11-12T18:52:36;32.92;;;19.85;;
16472;SDS011;8347;52.486;13.432;2022-11-12T18:55:41;36.17;;;23.17;;
16472;SDS011;8347;52.486;13.432;2022-11-12T18:58:47;28.52;;;20.10;;
16472;SDS011;8347;52.486;13.432;2022-11-12T19:01:52;32.03;;;20.95;;
16472;SDS011;8347;52.486;13.432;2022-11-12T19:04:57;32.22;;;21.35;;
16472;SDS011;8347;52.486;13.432;2022-11-12T19:08:02;28.27;;;19.30;;
16472;SDS011;8347;52.486;13.432;2022-11-12T19:11:09;32.47;;;21.70;;
16472;SDS011;8347;52.486;13.432;2022-11-12T19:14:14;29.35;;;19.27;;
16472;SDS011;8347;52.486;13.432;2022-11-12T19:17:19;30.65;;;19.45;;
16472;SDS011;8347;52.486;13.432;2022-11-12T19:20:25;28.90;;;18.50;;
16472;SDS011;8347;52.486;13.432;2022-11-12T19:23:30;31.15;;;19.88;;
16472;SDS011;8347;52.486;13.432;2022-11-12T19:26:36;30.20;;;19.00;;
16472;SDS011;8347;52.486;13.432;2022-11-12T19:29:40;36.03;;;21.38;;
16472;SDS011;8347;52.486;13.432;2022-11-12T19:32:46;32.78;;;20.45;;
16472;SDS011;8347;52.486;13.432;2022-11-12T19:35:50;31.80;;;19.30;;
16472;SDS011;8347;52.486;13.432;2022-11-12T19:38:56;32.00;;;19.20;;
16472;SDS011;8347;52.486;13.432;2022-11-12T19:42:03;31.52;;;18.98;;
16472;SDS011;8347;52.486;13.432;2022-11-12T19:45:10;30.17;;;19.10;;
16472;SDS011;8347;52.486;13.432;2022-11-12T19:48:15;32.33;;;19.92;;
16472;SDS011;8347;52.486;13.432;2022-11-12T19:51:20;34.20;;;19.73;;
16472;SDS011;8347;52.486;13.432;2022-11-12T19:54:27;31.33;;;20.40;;
16472;SDS011;8347;52.486;13.432;2022-11-12T19:57:32;32.47;;;20.13;;
16472;SDS011;8347;52.486;13.432;2022-11-12T20:00:38;30.15;;;21.45;;
16472;SDS011;8347;52.486;13.432;2022-11-12T20:03:45;30.40;;;19.85;;
16472;SDS011;8347;52.486;13.432;2022-11-12T20:06:50;31.70;;;19.20;;